sensor_id;sensor_type;location;lat;lon;timestamp;temperature;humidity
9919;DHT22;4998;51.024;13.828;2022-09-17T00:01:27;15.90;64.40
9919;DHT22;4998;51.024;13.828;2022-09-17T00:03:55;15.90;64.40
9919;DHT22;4998;51.024;13.828;2022-09-17T00:06:24;15.90;64.40
9919;DHT22;4998;51.024;13.828;2022-09-17T00:08:52;15.90;64.20
9919;DHT22;4998;51.024;13.828;2022-09-17T00:11:21;15.90;64.30
9919;DHT22;4998;51.024;13.828;2022-09-17T00:13:49;16.10;64.50
9919;DHT22;4998;51.024;13.828;2022-09-17T00:16:23;15.90;64.40
9919;DHT22;4998;51.024;13.828;2022-09-17T00:18:52;16.00;64.60
9919;DHT22;4998;51.024;13.828;2022-09-17T00:21:19;16.00;64.60
9919;DHT22;4998;51.024;13.828;2022-09-17T00:23:46;16.00;64.50
9919;DHT22;4998;51.024;13.828;2022-09-17T00:26:14;16.00;64.60
9919;DHT22;4998;51.024;13.828;2022-09-17T00:28:40;16.00;64.50
9919;DHT22;4998;51.024;13.828;2022-09-17T00:31:10;16.00;64.50
9919;DHT22;4998;51.024;13.828;2022-09-17T00:33:37;16.00;64.50
9919;DHT22;4998;51.024;13.828;2022-09-17T00:36:06;16.00;65.40
9919;DHT22;4998;51.024;13.828;2022-09-17T00:38:33;16.00;64.60
9919;DHT22;4998;51.024;13.828;2022-09-17T00:41:01;16.00;64.60
9919;DHT22;4998;51.024;13.828;2022-09-17T00:43:37;16.00;64.60
9919;DHT22;4998;51.024;13.828;2022-09-17T00:46:16;16.00;64.50
9919;DHT22;4998;51.024;13.828;2022-09-17T00:48:47;16.00;64.50
9919;DHT22;4998;51.024;13.828;2022-09-17T00:51:20;16.00;64.40
9919;DHT22;4998;51.024;13.828;2022-09-17T00:53:48;16.00;64.50
9919;DHT22;4998;51.024;13.828;2022-09-17T00:56:19;16.00;64.50
9919;DHT22;4998;51.024;13.828;2022-09-17T00:58:48;16.00;64.60
9919;DHT22;4998;51.024;13.828;2022-09-17T01:01:16;16.00;64.60
9919;DHT22;4998;51.024;13.828;2022-09-17T01:03:43;16.00;64.80
9919;DHT22;4998;51.024;13.828;2022-09-17T01:06:18;15.90;64.60
9919;DHT22;4998;51.024;13.828;2022-09-17T01:09:00;16.00;64.80
9919;DHT22;4998;51.024;13.828;2022-09-17T01:12:01;16.00;64.90
9919;DHT22;4998;51.024;13.828;2022-09-17T01:14:44;15.90;64.90
9919;DHT22;4998;51.024;13.828;2022-09-17T01:17:19;15.90;64.80
9919;DHT22;4998;51.024;13.828;2022-09-17T01:20:24;15.90;64.80
9919;DHT22;4998;51.024;13.828;2022-09-17T01:23:14;15.90;64.80
9919;DHT22;4998;51.024;13.828;2022-09-17T01:25:55;15.90;64.80
9919;DHT22;4998;51.024;13.828;2022-09-17T01:28:31;15.90;64.90
9919;DHT22;4998;51.024;13.828;2022-09-17T01:31:22;15.90;65.00
9919;DHT22;4998;51.024;13.828;2022-09-17T01:33:57;15.90;65.20
9919;DHT22;4998;51.024;13.828;2022-09-17T01:36:39;15.90;65.20
9919;DHT22;4998;51.024;13.828;2022-09-17T01:39:13;15.90;65.30
9919;DHT22;4998;51.024;13.828;2022-09-17T01:41:52;15.90;65.30
9919;DHT22;4998;51.024;13.828;2022-09-17T01:44:25;15.90;65.50
9919;DHT22;4998;51.024;13.828;2022-09-17T01:47:00;15.90;65.50
9919;DHT22;4998;51.024;13.828;2022-09-17T01:49:30;15.90;65.50
9919;DHT22;4998;51.024;13.828;2022-09-17T01:52:00;15.90;65.40
9919;DHT22;4998;51.024;13.828;2022-09-17T01:54:30;15.90;65.50
9919;DHT22;4998;51.024;13.828;2022-09-17T01:57:00;15.90;65.60
9919;DHT22;4998;51.024;13.828;2022-09-17T01:59:30;15.90;65.60
9919;DHT22;4998;51.024;13.828;2022-09-17T02:02:06;15.90;65.60
9919;DHT22;4998;51.024;13.828;2022-09-17T02:04:37;15.90;65.60
9919;DHT22;4998;51.024;13.828;2022-09-17T02:07:12;15.90;65.70
9919;DHT22;4998;51.024;13.828;2022-09-17T02:09:43;15.90;65.70
9919;DHT22;4998;51.024;13.828;2022-09-17T02:12:16;16.00;65.70
9919;DHT22;4998;51.024;13.828;2022-09-17T02:14:47;15.90;65.70
9919;DHT22;4998;51.024;13.828;2022-09-17T02:17:21;16.00;65.80
9919;DHT22;4998;51.024;13.828;2022-09-17T02:19:51;15.90;65.80
9919;DHT22;4998;51.024;13.828;2022-09-17T02:22:22;15.90;65.70
9919;DHT22;4998;51.024;13.828;2022-09-17T02:24:59;15.90;65.90
9919;DHT22;4998;51.024;13.828;2022-09-17T02:27:36;15.90;66.00
9919;DHT22;4998;51.024;13.828;2022-09-17T02:30:06;15.90;66.00
9919;DHT22;4998;51.024;13.828;2022-09-17T02:32:35;15.90;66.10
9919;DHT22;4998;51.024;13.828;2022-09-17T02:35:03;15.90;66.20
9919;DHT22;4998;51.024;13.828;2022-09-17T02:37:31;15.90;66.20
9919;DHT22;4998;51.024;13.828;2022-09-17T02:39:58;15.90;66.20
9919;DHT22;4998;51.024;13.828;2022-09-17T02:42:33;15.90;66.40
9919;DHT22;4998;51.024;13.828;2022-09-17T02:45:14;15.90;66.40
9919;DHT22;4998;51.024;13.828;2022-09-17T02:48:13;15.90;66.50
9919;DHT22;4998;51.024;13.828;2022-09-17T02:53:44;15.80;67.30
9919;DHT22;4998;51.024;13.828;2022-09-17T02:56:19;15.90;66.60
9919;DHT22;4998;51.024;13.828;2022-09-17T02:58:54;15.90;67.40
9919;DHT22;4998;51.024;13.828;2022-09-17T03:01:27;15.90;66.70
9919;DHT22;4998;51.024;13.828;2022-09-17T03:03:58;15.90;66.80
9919;DHT22;4998;51.024;13.828;2022-09-17T03:06:25;15.90;66.80
9919;DHT22;4998;51.024;13.828;2022-09-17T03:08:52;15.90;66.80
9919;DHT22;4998;51.024;13.828;2022-09-17T03:11:22;15.90;66.90
9919;DHT22;4998;51.024;13.828;2022-09-17T03:13:49;15.90;67.00
9919;DHT22;4998;51.024;13.828;2022-09-17T03:16:16;15.90;67.00
9919;DHT22;4998;51.024;13.828;2022-09-17T03:18:43;15.90;67.10
9919;DHT22;4998;51.024;13.828;2022-09-17T03:21:11;15.90;67.30
9919;DHT22;4998;51.024;13.828;2022-09-17T03:23:38;15.90;67.40
9919;DHT22;4998;51.024;13.828;2022-09-17T03:26:05;15.80;67.30
9919;DHT22;4998;51.024;13.828;2022-09-17T03:28:32;15.90;67.50
9919;DHT22;4998;51.024;13.828;2022-09-17T03:30:59;15.90;67.50
9919;DHT22;4998;51.024;13.828;2022-09-17T03:33:26;15.90;67.50
9919;DHT22;4998;51.024;13.828;2022-09-17T03:35:53;15.90;67.50
9919;DHT22;4998;51.024;13.828;2022-09-17T03:38:21;15.90;68.40
9919;DHT22;4998;51.024;13.828;2022-09-17T03:40:57;15.90;67.70
9919;DHT22;4998;51.024;13.828;2022-09-17T03:43:24;15.90;67.90
9919;DHT22;4998;51.024;13.828;2022-09-17T03:45:51;16.00;68.00
9919;DHT22;4998;51.024;13.828;2022-09-17T03:48:18;15.90;68.00
9919;DHT22;4998;51.024;13.828;2022-09-17T03:50:45;15.90;68.10
9919;DHT22;4998;51.024;13.828;2022-09-17T03:53:12;15.90;68.10
9919;DHT22;4998;51.024;13.828;2022-09-17T03:55:40;15.90;68.20
9919;DHT22;4998;51.024;13.828;2022-09-17T03:58:07;15.90;68.20
9919;DHT22;4998;51.024;13.828;2022-09-17T04:00:34;15.90;68.30
9919;DHT22;4998;51.024;13.828;2022-09-17T04:03:01;15.90;68.50
9919;DHT22;4998;51.024;13.828;2022-09-17T04:05:28;15.90;68.60
9919;DHT22;4998;51.024;13.828;2022-09-17T04:07:55;15.90;68.70
9919;DHT22;4998;51.024;13.828;2022-09-17T04:10:22;15.90;68.80
9919;DHT22;4998;51.024;13.828;2022-09-17T04:12:50;15.90;68.80
9919;DHT22;4998;51.024;13.828;2022-09-17T04:15:17;15.90;69.00
9919;DHT22;4998;51.024;13.828;2022-09-17T04:17:44;15.80;69.00
9919;DHT22;4998;51.024;13.828;2022-09-17T04:20:11;15.80;69.10
9919;DHT22;4998;51.024;13.828;2022-09-17T04:22:38;15.80;69.30
9919;DHT22;4998;51.024;13.828;2022-09-17T04:25:06;15.80;69.40
9919;DHT22;4998;51.024;13.828;2022-09-17T04:27:33;15.80;69.50
9919;DHT22;4998;51.024;13.828;2022-09-17T04:30:01;15.80;69.60
9919;DHT22;4998;51.024;13.828;2022-09-17T04:32:28;15.80;69.90
9919;DHT22;4998;51.024;13.828;2022-09-17T04:34:55;15.80;70.00
9919;DHT22;4998;51.024;13.828;2022-09-17T04:37:22;15.80;70.20
9919;DHT22;4998;51.024;13.828;2022-09-17T04:39:50;15.80;70.20
9919;DHT22;4998;51.024;13.828;2022-09-17T04:42:17;15.80;70.40
9919;DHT22;4998;51.024;13.828;2022-09-17T04:44:44;15.70;70.50
9919;DHT22;4998;51.024;13.828;2022-09-17T04:47:13;15.70;70.70
9919;DHT22;4998;51.024;13.828;2022-09-17T04:49:39;15.70;71.00
9919;DHT22;4998;51.024;13.828;2022-09-17T04:52:06;15.70;71.10
9919;DHT22;4998;51.024;13.828;2022-09-17T04:54:33;15.60;71.10
9919;DHT22;4998;51.024;13.828;2022-09-17T04:57:00;15.60;71.50
9919;DHT22;4998;51.024;13.828;2022-09-17T04:59:27;15.60;71.70
9919;DHT22;4998;51.024;13.828;2022-09-17T05:01:54;15.60;71.90
9919;DHT22;4998;51.024;13.828;2022-09-17T05:04:22;15.60;72.00
9919;DHT22;4998;51.024;13.828;2022-09-17T05:06:49;15.60;72.30
9919;DHT22;4998;51.024;13.828;2022-09-17T05:09:16;15.60;72.40
9919;DHT22;4998;51.024;13.828;2022-09-17T05:11:43;15.60;72.50
9919;DHT22;4998;51.024;13.828;2022-09-17T05:14:10;15.60;72.70
9919;DHT22;4998;51.024;13.828;2022-09-17T05:16:38;15.60;72.80
9919;DHT22;4998;51.024;13.828;2022-09-17T05:19:05;15.60;73.00
9919;DHT22;4998;51.024;13.828;2022-09-17T05:21:34;15.60;73.20
9919;DHT22;4998;51.024;13.828;2022-09-17T05:24:01;15.60;73.60
9919;DHT22;4998;51.024;13.828;2022-09-17T05:26:28;15.60;73.80
9919;DHT22;4998;51.024;13.828;2022-09-17T05:28:55;15.60;73.90
9919;DHT22;4998;51.024;13.828;2022-09-17T05:31:22;15.60;74.20
9919;DHT22;4998;51.024;13.828;2022-09-17T05:33:49;15.60;74.40
9919;DHT22;4998;51.024;13.828;2022-09-17T05:36:16;15.60;74.60
9919;DHT22;4998;51.024;13.828;2022-09-17T05:38:44;15.50;74.80
9919;DHT22;4998;51.024;13.828;2022-09-17T05:41:11;15.50;75.10
9919;DHT22;4998;51.024;13.828;2022-09-17T05:43:38;15.50;75.10
9919;DHT22;4998;51.024;13.828;2022-09-17T05:46:05;15.50;75.30
9919;DHT22;4998;51.024;13.828;2022-09-17T05:48:32;15.50;75.60
9919;DHT22;4998;51.024;13.828;2022-09-17T05:50:59;15.50;75.70
9919;DHT22;4998;51.024;13.828;2022-09-17T05:53:26;15.50;75.90
9919;DHT22;4998;51.024;13.828;2022-09-17T05:55:56;15.50;75.90
9919;DHT22;4998;51.024;13.828;2022-09-17T05:58:24;15.50;76.30
9919;DHT22;4998;51.024;13.828;2022-09-17T06:00:51;15.50;76.50
9919;DHT22;4998;51.024;13.828;2022-09-17T06:03:19;15.50;76.60
9919;DHT22;4998;51.024;13.828;2022-09-17T06:05:52;15.50;76.90
9919;DHT22;4998;51.024;13.828;2022-09-17T06:08:19;15.40;77.30
9919;DHT22;4998;51.024;13.828;2022-09-17T06:10:46;15.40;77.20
9919;DHT22;4998;51.024;13.828;2022-09-17T06:13:15;15.40;77.60
9919;DHT22;4998;51.024;13.828;2022-09-17T06:15:47;15.50;78.00
9919;DHT22;4998;51.024;13.828;2022-09-17T06:18:14;15.50;78.10
9919;DHT22;4998;51.024;13.828;2022-09-17T06:20:41;15.50;78.20
9919;DHT22;4998;51.024;13.828;2022-09-17T06:23:08;15.50;78.40
9919;DHT22;4998;51.024;13.828;2022-09-17T06:25:35;15.50;78.60
9919;DHT22;4998;51.024;13.828;2022-09-17T06:28:02;15.60;78.90
9919;DHT22;4998;51.024;13.828;2022-09-17T06:30:30;15.60;79.10
9919;DHT22;4998;51.024;13.828;2022-09-17T06:32:59;15.60;80.10
9919;DHT22;4998;51.024;13.828;2022-09-17T06:35:27;15.60;79.50
9919;DHT22;4998;51.024;13.828;2022-09-17T06:37:53;15.60;79.60
9919;DHT22;4998;51.024;13.828;2022-09-17T06:40:20;15.60;79.70
9919;DHT22;4998;51.024;13.828;2022-09-17T06:42:48;15.60;79.80
9919;DHT22;4998;51.024;13.828;2022-09-17T06:45:15;15.60;80.10
9919;DHT22;4998;51.024;13.828;2022-09-17T06:47:43;15.60;80.30
9919;DHT22;4998;51.024;13.828;2022-09-17T06:50:10;15.70;80.70
9919;DHT22;4998;51.024;13.828;2022-09-17T06:52:37;15.70;80.80
9919;DHT22;4998;51.024;13.828;2022-09-17T06:55:05;15.70;81.00
9919;DHT22;4998;51.024;13.828;2022-09-17T06:57:31;15.70;81.10
9919;DHT22;4998;51.024;13.828;2022-09-17T06:59:58;15.70;81.20
9919;DHT22;4998;51.024;13.828;2022-09-17T07:02:25;15.70;81.40
9919;DHT22;4998;51.024;13.828;2022-09-17T07:04:53;15.70;81.70
9919;DHT22;4998;51.024;13.828;2022-09-17T07:07:20;15.70;82.00
9919;DHT22;4998;51.024;13.828;2022-09-17T07:09:47;15.70;82.00
9919;DHT22;4998;51.024;13.828;2022-09-17T07:12:14;15.70;82.40
9919;DHT22;4998;51.024;13.828;2022-09-17T07:14:41;15.70;82.70
9919;DHT22;4998;51.024;13.828;2022-09-17T07:17:08;15.70;83.20
9919;DHT22;4998;51.024;13.828;2022-09-17T07:19:35;15.80;83.60
9919;DHT22;4998;51.024;13.828;2022-09-17T07:22:04;15.80;84.10
9919;DHT22;4998;51.024;13.828;2022-09-17T07:24:32;15.80;84.80
9919;DHT22;4998;51.024;13.828;2022-09-17T07:26:59;15.80;84.70
9919;DHT22;4998;51.024;13.828;2022-09-17T07:29:26;15.80;84.90
9919;DHT22;4998;51.024;13.828;2022-09-17T07:31:53;15.80;85.30
9919;DHT22;4998;51.024;13.828;2022-09-17T07:34:20;15.70;85.70
9919;DHT22;4998;51.024;13.828;2022-09-17T07:36:47;15.70;86.10
9919;DHT22;4998;51.024;13.828;2022-09-17T07:39:16;15.70;86.60
9919;DHT22;4998;51.024;13.828;2022-09-17T07:41:42;15.60;87.10
9919;DHT22;4998;51.024;13.828;2022-09-17T07:44:09;15.60;87.30
9919;DHT22;4998;51.024;13.828;2022-09-17T07:46:36;15.60;87.50
9919;DHT22;4998;51.024;13.828;2022-09-17T07:49:03;15.60;87.70
9919;DHT22;4998;51.024;13.828;2022-09-17T07:51:30;15.60;88.30
9919;DHT22;4998;51.024;13.828;2022-09-17T07:53:58;15.50;88.60
9919;DHT22;4998;51.024;13.828;2022-09-17T07:56:28;15.50;89.40
9919;DHT22;4998;51.024;13.828;2022-09-17T07:58:55;15.50;89.80
9919;DHT22;4998;51.024;13.828;2022-09-17T08:01:22;15.60;89.80
9919;DHT22;4998;51.024;13.828;2022-09-17T08:03:52;15.60;89.80
9919;DHT22;4998;51.024;13.828;2022-09-17T08:06:22;15.60;90.00
9919;DHT22;4998;51.024;13.828;2022-09-17T08:08:50;15.60;90.40
9919;DHT22;4998;51.024;13.828;2022-09-17T08:11:18;15.60;90.10
9919;DHT22;4998;51.024;13.828;2022-09-17T08:13:48;15.60;90.20
9919;DHT22;4998;51.024;13.828;2022-09-17T08:16:15;15.70;90.50
9919;DHT22;4998;51.024;13.828;2022-09-17T08:18:44;15.70;90.30
9919;DHT22;4998;51.024;13.828;2022-09-17T08:21:13;15.70;90.40
9919;DHT22;4998;51.024;13.828;2022-09-17T08:23:40;15.70;90.50
9919;DHT22;4998;51.024;13.828;2022-09-17T08:26:12;15.70;90.50
9919;DHT22;4998;51.024;13.828;2022-09-17T08:28:39;15.80;90.70
9919;DHT22;4998;51.024;13.828;2022-09-17T08:31:11;15.80;90.70
9919;DHT22;4998;51.024;13.828;2022-09-17T08:33:39;15.80;90.90
9919;DHT22;4998;51.024;13.828;2022-09-17T08:36:08;15.80;91.00
9919;DHT22;4998;51.024;13.828;2022-09-17T08:38:36;15.90;90.90
9919;DHT22;4998;51.024;13.828;2022-09-17T08:41:17;15.90;90.80
9919;DHT22;4998;51.024;13.828;2022-09-17T08:43:50;15.90;90.80
9919;DHT22;4998;51.024;13.828;2022-09-17T08:46:19;16.00;90.70
9919;DHT22;4998;51.024;13.828;2022-09-17T08:48:51;16.00;90.70
9919;DHT22;4998;51.024;13.828;2022-09-17T08:51:27;16.10;90.70
9919;DHT22;4998;51.024;13.828;2022-09-17T08:53:59;16.10;90.70
9919;DHT22;4998;51.024;13.828;2022-09-17T08:56:30;16.10;90.80
9919;DHT22;4998;51.024;13.828;2022-09-17T08:59:06;16.20;90.50
9919;DHT22;4998;51.024;13.828;2022-09-17T09:01:43;16.20;90.30
9919;DHT22;4998;51.024;13.828;2022-09-17T09:07:09;16.40;90.40
9919;DHT22;4998;51.024;13.828;2022-09-17T09:09:40;16.50;89.80
9919;DHT22;4998;51.024;13.828;2022-09-17T09:12:15;16.50;89.60
9919;DHT22;4998;51.024;13.828;2022-09-17T09:14:48;16.60;89.10
9919;DHT22;4998;51.024;13.828;2022-09-17T09:17:21;16.70;88.40
9919;DHT22;4998;51.024;13.828;2022-09-17T09:19:49;16.70;87.90
9919;DHT22;4998;51.024;13.828;2022-09-17T09:25:18;16.80;87.60
9919;DHT22;4998;51.024;13.828;2022-09-17T09:28:04;16.70;86.60
9919;DHT22;4998;51.024;13.828;2022-09-17T09:30:45;16.80;86.40
9919;DHT22;4998;51.024;13.828;2022-09-17T09:33:20;16.90;86.10
9919;DHT22;4998;51.024;13.828;2022-09-17T09:35:50;16.90;86.00
9919;DHT22;4998;51.024;13.828;2022-09-17T09:38:21;16.90;86.00
9919;DHT22;4998;51.024;13.828;2022-09-17T09:40:54;16.90;85.40
9919;DHT22;4998;51.024;13.828;2022-09-17T09:43:41;17.00;84.80
9919;DHT22;4998;51.024;13.828;2022-09-17T09:49:08;17.20;84.20
9919;DHT22;4998;51.024;13.828;2022-09-17T09:51:48;17.10;83.50
9919;DHT22;4998;51.024;13.828;2022-09-17T09:54:27;17.20;83.30
9919;DHT22;4998;51.024;13.828;2022-09-17T09:56:58;17.20;83.30
9919;DHT22;4998;51.024;13.828;2022-09-17T09:59:28;17.30;83.70
9919;DHT22;4998;51.024;13.828;2022-09-17T10:01:55;17.40;83.50
9919;DHT22;4998;51.024;13.828;2022-09-17T10:04:25;17.50;83.10
9919;DHT22;4998;51.024;13.828;2022-09-17T10:06:58;17.50;82.20
9919;DHT22;4998;51.024;13.828;2022-09-17T10:09:28;17.50;81.20
9919;DHT22;4998;51.024;13.828;2022-09-17T10:12:03;17.50;81.30
9919;DHT22;4998;51.024;13.828;2022-09-17T10:14:32;17.50;81.30
9919;DHT22;4998;51.024;13.828;2022-09-17T10:17:18;17.60;81.60
9919;DHT22;4998;51.024;13.828;2022-09-17T10:20:11;17.60;82.00
9919;DHT22;4998;51.024;13.828;2022-09-17T10:22:39;17.60;81.50
9919;DHT22;4998;51.024;13.828;2022-09-17T10:25:25;17.60;80.80
9919;DHT22;4998;51.024;13.828;2022-09-17T10:27:53;17.60;80.40
9919;DHT22;4998;51.024;13.828;2022-09-17T10:30:21;17.70;80.20
9919;DHT22;4998;51.024;13.828;2022-09-17T10:33:15;17.60;79.60
9919;DHT22;4998;51.024;13.828;2022-09-17T10:35:55;17.60;79.30
9919;DHT22;4998;51.024;13.828;2022-09-17T10:38:28;17.60;79.80
9919;DHT22;4998;51.024;13.828;2022-09-17T10:41:12;17.50;79.50
9919;DHT22;4998;51.024;13.828;2022-09-17T10:43:39;17.40;79.30
9919;DHT22;4998;51.024;13.828;2022-09-17T10:46:09;17.40;79.50
9919;DHT22;4998;51.024;13.828;2022-09-17T10:48:42;17.30;79.10
9919;DHT22;4998;51.024;13.828;2022-09-17T10:51:20;17.20;79.40
9919;DHT22;4998;51.024;13.828;2022-09-17T10:54:13;17.20;78.80
9919;DHT22;4998;51.024;13.828;2022-09-17T10:56:45;17.10;78.80
9919;DHT22;4998;51.024;13.828;2022-09-17T11:05:28;17.10;80.80
9919;DHT22;4998;51.024;13.828;2022-09-17T11:08:06;17.20;81.60
9919;DHT22;4998;51.024;13.828;2022-09-17T11:10:41;17.20;82.40
9919;DHT22;4998;51.024;13.828;2022-09-17T11:13:19;17.30;81.80
9919;DHT22;4998;51.024;13.828;2022-09-17T11:16:00;17.40;81.90
9919;DHT22;4998;51.024;13.828;2022-09-17T11:18:35;17.50;82.30
9919;DHT22;4998;51.024;13.828;2022-09-17T11:27:38;17.80;81.10
9919;DHT22;4998;51.024;13.828;2022-09-17T11:30:14;17.90;80.60
9919;DHT22;4998;51.024;13.828;2022-09-17T11:35:44;18.10;78.60
9919;DHT22;4998;51.024;13.828;2022-09-17T11:38:16;18.30;78.50
9919;DHT22;4998;51.024;13.828;2022-09-17T11:40:46;18.30;77.90
9919;DHT22;4998;51.024;13.828;2022-09-17T11:43:21;18.40;77.70
9919;DHT22;4998;51.024;13.828;2022-09-17T11:45:59;18.40;76.80
9919;DHT22;4998;51.024;13.828;2022-09-17T11:48:34;18.50;77.30
9919;DHT22;4998;51.024;13.828;2022-09-17T11:51:09;18.50;77.00
9919;DHT22;4998;51.024;13.828;2022-09-17T11:53:43;18.60;76.40
9919;DHT22;4998;51.024;13.828;2022-09-17T11:56:18;18.60;75.50
9919;DHT22;4998;51.024;13.828;2022-09-17T11:58:50;18.60;72.40
9919;DHT22;4998;51.024;13.828;2022-09-17T12:01:27;18.50;72.00
9919;DHT22;4998;51.024;13.828;2022-09-17T12:03:57;18.40;71.80
9919;DHT22;4998;51.024;13.828;2022-09-17T12:06:33;18.20;71.80
9919;DHT22;4998;51.024;13.828;2022-09-17T12:09:05;18.00;71.70
9919;DHT22;4998;51.024;13.828;2022-09-17T12:11:39;17.80;72.20
9919;DHT22;4998;51.024;13.828;2022-09-17T12:14:16;17.70;72.50
9919;DHT22;4998;51.024;13.828;2022-09-17T12:16:47;17.50;73.00
9919;DHT22;4998;51.024;13.828;2022-09-17T12:19:18;17.40;73.20
9919;DHT22;4998;51.024;13.828;2022-09-17T12:21:50;17.30;73.50
9919;DHT22;4998;51.024;13.828;2022-09-17T12:24:21;17.20;74.20
9919;DHT22;4998;51.024;13.828;2022-09-17T12:26:55;17.10;75.00
9919;DHT22;4998;51.024;13.828;2022-09-17T12:29:57;17.10;75.90
9919;DHT22;4998;51.024;13.828;2022-09-17T12:32:39;17.10;76.40
9919;DHT22;4998;51.024;13.828;2022-09-17T12:35:18;17.10;76.90
9919;DHT22;4998;51.024;13.828;2022-09-17T12:38:08;17.10;77.30
9919;DHT22;4998;51.024;13.828;2022-09-17T12:40:43;17.10;77.20
9919;DHT22;4998;51.024;13.828;2022-09-17T12:43:34;17.20;77.60
9919;DHT22;4998;51.024;13.828;2022-09-17T12:46:16;17.20;77.60
9919;DHT22;4998;51.024;13.828;2022-09-17T12:49:13;17.20;77.40
9919;DHT22;4998;51.024;13.828;2022-09-17T12:51:53;17.20;77.30
9919;DHT22;4998;51.024;13.828;2022-09-17T12:54:39;17.30;77.30
9919;DHT22;4998;51.024;13.828;2022-09-17T12:57:18;17.30;77.70
9919;DHT22;4998;51.024;13.828;2022-09-17T12:59:51;17.30;78.40
9919;DHT22;4998;51.024;13.828;2022-09-17T13:02:25;17.40;78.80
9919;DHT22;4998;51.024;13.828;2022-09-17T13:05:32;17.50;80.30
9919;DHT22;4998;51.024;13.828;2022-09-17T13:08:20;17.60;79.40
9919;DHT22;4998;51.024;13.828;2022-09-17T13:11:23;17.70;79.90
9919;DHT22;4998;51.024;13.828;2022-09-17T13:14:02;17.90;79.90
9919;DHT22;4998;51.024;13.828;2022-09-17T13:16:35;18.10;79.60
9919;DHT22;4998;51.024;13.828;2022-09-17T13:19:20;18.30;78.00
9919;DHT22;4998;51.024;13.828;2022-09-17T13:21:52;18.40;76.50
9919;DHT22;4998;51.024;13.828;2022-09-17T13:24:22;18.50;75.80
9919;DHT22;4998;51.024;13.828;2022-09-17T13:26:51;18.60;75.30
9919;DHT22;4998;51.024;13.828;2022-09-17T13:29:56;18.60;74.00
9919;DHT22;4998;51.024;13.828;2022-09-17T13:32:46;18.60;73.40
9919;DHT22;4998;51.024;13.828;2022-09-17T13:35:49;18.60;74.40
9919;DHT22;4998;51.024;13.828;2022-09-17T13:38:17;18.50;73.70
9919;DHT22;4998;51.024;13.828;2022-09-17T13:40:45;18.40;72.80
9919;DHT22;4998;51.024;13.828;2022-09-17T13:43:15;18.30;71.30
9919;DHT22;4998;51.024;13.828;2022-09-17T13:46:08;18.10;72.20
9919;DHT22;4998;51.024;13.828;2022-09-17T13:48:49;17.90;72.70
9919;DHT22;4998;51.024;13.828;2022-09-17T13:51:44;17.80;73.80
9919;DHT22;4998;51.024;13.828;2022-09-17T13:54:12;17.70;74.30
9919;DHT22;4998;51.024;13.828;2022-09-17T13:56:42;17.70;74.70
9919;DHT22;4998;51.024;13.828;2022-09-17T13:59:13;17.70;74.40
9919;DHT22;4998;51.024;13.828;2022-09-17T14:05:34;17.70;75.00
9919;DHT22;4998;51.024;13.828;2022-09-17T14:08:27;17.80;73.60
9919;DHT22;4998;51.024;13.828;2022-09-17T14:10:56;17.90;73.30
9919;DHT22;4998;51.024;13.828;2022-09-17T14:13:39;18.00;72.80
9919;DHT22;4998;51.024;13.828;2022-09-17T14:16:31;18.10;72.30
9919;DHT22;4998;51.024;13.828;2022-09-17T14:19:02;18.10;71.90
9919;DHT22;4998;51.024;13.828;2022-09-17T14:21:32;18.20;71.40
9919;DHT22;4998;51.024;13.828;2022-09-17T14:24:03;18.30;71.70
9919;DHT22;4998;51.024;13.828;2022-09-17T14:27:02;18.40;69.80
9919;DHT22;4998;51.024;13.828;2022-09-17T14:32:41;18.50;68.80
9919;DHT22;4998;51.024;13.828;2022-09-17T14:35:15;18.60;68.20
9919;DHT22;4998;51.024;13.828;2022-09-17T14:37:47;18.60;67.00
9919;DHT22;4998;51.024;13.828;2022-09-17T14:40:18;18.60;67.30
9919;DHT22;4998;51.024;13.828;2022-09-17T14:42:47;18.60;67.10
9919;DHT22;4998;51.024;13.828;2022-09-17T14:45:18;18.60;67.10
9919;DHT22;4998;51.024;13.828;2022-09-17T14:47:46;18.70;67.20
9919;DHT22;4998;51.024;13.828;2022-09-17T14:50:20;18.70;66.20
9919;DHT22;4998;51.024;13.828;2022-09-17T14:52:48;18.60;65.10
9919;DHT22;4998;51.024;13.828;2022-09-17T14:55:19;18.70;66.20
9919;DHT22;4998;51.024;13.828;2022-09-17T14:57:51;18.70;64.70
9919;DHT22;4998;51.024;13.828;2022-09-17T15:00:21;18.80;64.10
9919;DHT22;4998;51.024;13.828;2022-09-17T15:02:51;18.70;64.20
9919;DHT22;4998;51.024;13.828;2022-09-17T15:05:25;18.70;64.00
9919;DHT22;4998;51.024;13.828;2022-09-17T15:08:05;18.70;63.50
9919;DHT22;4998;51.024;13.828;2022-09-17T15:10:35;18.70;63.30
9919;DHT22;4998;51.024;13.828;2022-09-17T15:13:02;18.70;63.50
9919;DHT22;4998;51.024;13.828;2022-09-17T15:15:29;18.70;63.20
9919;DHT22;4998;51.024;13.828;2022-09-17T15:17:57;18.60;63.00
9919;DHT22;4998;51.024;13.828;2022-09-17T15:20:28;18.60;62.50
9919;DHT22;4998;51.024;13.828;2022-09-17T15:23:02;18.60;62.20
9919;DHT22;4998;51.024;13.828;2022-09-17T15:25:35;18.50;62.00
9919;DHT22;4998;51.024;13.828;2022-09-17T15:28:07;18.50;62.30
9919;DHT22;4998;51.024;13.828;2022-09-17T15:30:39;18.50;62.40
9919;DHT22;4998;51.024;13.828;2022-09-17T15:33:08;18.50;62.60
9919;DHT22;4998;51.024;13.828;2022-09-17T15:35:38;18.50;62.40
9919;DHT22;4998;51.024;13.828;2022-09-17T15:38:19;18.50;62.50
9919;DHT22;4998;51.024;13.828;2022-09-17T15:40:48;18.60;62.60
9919;DHT22;4998;51.024;13.828;2022-09-17T15:43:20;18.60;63.10
9919;DHT22;4998;51.024;13.828;2022-09-17T15:45:48;18.70;63.30
9919;DHT22;4998;51.024;13.828;2022-09-17T15:48:23;18.70;63.40
9919;DHT22;4998;51.024;13.828;2022-09-17T15:51:00;18.80;63.70
9919;DHT22;4998;51.024;13.828;2022-09-17T15:53:28;18.80;62.50
9919;DHT22;4998;51.024;13.828;2022-09-17T15:56:05;18.90;62.00
9919;DHT22;4998;51.024;13.828;2022-09-17T15:58:36;18.90;61.30
9919;DHT22;4998;51.024;13.828;2022-09-17T16:04:21;18.90;60.40
9919;DHT22;4998;51.024;13.828;2022-09-17T16:06:53;18.90;59.00
9919;DHT22;4998;51.024;13.828;2022-09-17T16:09:38;18.80;58.60
9919;DHT22;4998;51.024;13.828;2022-09-17T16:12:10;18.80;58.20
9919;DHT22;4998;51.024;13.828;2022-09-17T16:14:45;18.80;58.40
9919;DHT22;4998;51.024;13.828;2022-09-17T16:17:28;18.70;58.10
9919;DHT22;4998;51.024;13.828;2022-09-17T16:19:57;18.70;57.60
9919;DHT22;4998;51.024;13.828;2022-09-17T16:22:25;18.60;57.70
9919;DHT22;4998;51.024;13.828;2022-09-17T16:24:54;18.60;57.60
9919;DHT22;4998;51.024;13.828;2022-09-17T16:27:25;18.60;57.30
9919;DHT22;4998;51.024;13.828;2022-09-17T16:30:02;18.50;57.00
9919;DHT22;4998;51.024;13.828;2022-09-17T16:32:29;18.40;57.20
9919;DHT22;4998;51.024;13.828;2022-09-17T16:34:56;18.40;57.50
9919;DHT22;4998;51.024;13.828;2022-09-17T16:37:24;18.40;57.50
9919;DHT22;4998;51.024;13.828;2022-09-17T16:39:51;18.40;57.30
9919;DHT22;4998;51.024;13.828;2022-09-17T16:42:18;18.30;57.10
9919;DHT22;4998;51.024;13.828;2022-09-17T16:44:46;18.30;57.20
9919;DHT22;4998;51.024;13.828;2022-09-17T16:47:13;18.30;57.10
9919;DHT22;4998;51.024;13.828;2022-09-17T16:49:40;18.20;57.00
9919;DHT22;4998;51.024;13.828;2022-09-17T16:52:07;18.10;57.20
9919;DHT22;4998;51.024;13.828;2022-09-17T16:54:34;18.20;57.50